Time,TemperatureF,DewpointF,PressureIn,WindDirection,WindDirectionDegrees,WindSpeedMPH,WindSpeedGustMPH,Humidity,HourlyPrecipIn,Conditions,Clouds,dailyrainin,SoftwareType,DateUTC
2013-03-18 00:00:00,33.4,32.9,28.97,South,180,1.3,1.3,98,0.05,,OVC045,0.00,VWS V14.01,2013-03-18 07:00:00,
2013-03-18 00:04:00,33.4,32.9,28.97,North,0,0.9,0.9,98,0.00,,OVC070,0.00,VWS V14.01,2013-03-18 07:04:00,
2013-03-18 00:09:00,33.4,32.9,28.97,ENE,68,0.0,0.0,98,0.00,,OVC070,0.00,VWS V14.01,2013-03-18 07:09:00,
2013-03-18 00:14:00,33.4,32.9,28.97,ENE,68,0.0,0.0,98,0.00,,OVC070,0.00,VWS V14.01,2013-03-18 07:14:00,
2013-03-18 00:19:00,33.4,32.9,28.97,SSW,202,0.0,0.0,98,0.00,,OVC070,0.00,VWS V14.01,2013-03-18 07:19:00,
2013-03-18 00:24:00,33.4,32.9,28.97,NNW,338,0.0,0.0,98,0.00,,OVC070,0.00,VWS V14.01,2013-03-18 07:24:00,
2013-03-18 00:29:00,33.4,32.9,28.97,ENE,68,0.0,0.0,98,0.00,,OVC070,0.00,VWS V14.01,2013-03-18 07:29:00,
2013-03-18 00:30:00,33.4,32.9,28.97,East,90,0.0,0.0,98,0.00,,OVC045,0.00,VWS V14.01,2013-03-18 07:30:00,
2013-03-18 00:34:00,33.4,32.9,28.97,West,270,0.0,0.0,98,0.00,,OVC070,0.00,VWS V14.01,2013-03-18 07:34:00,
2013-03-18 00:39:00,33.4,32.9,28.97,West,270,2.0,2.0,98,0.00,,OVC070,0.00,VWS V14.01,2013-03-18 07:39:00,
2013-03-18 00:44:00,33.4,32.9,28.97,WSW,248,0.0,0.0,98,0.00,,OVC070,0.00,VWS V14.01,2013-03-18 07:44:00,
2013-03-18 00:49:00,33.4,32.9,28.97,East,90,0.0,0.0,98,0.00,,OVC070,0.00,VWS V14.01,2013-03-18 07:49:00,
2013-03-18 00:54:00,33.4,32.9,28.97,SSW,202,0.0,0.0,98,0.04,,OVC070,0.04,VWS V14.01,2013-03-18 07:54:00,
2013-03-18 00:59:00,33.3,32.8,28.97,South,180,0.0,0.0,98,0.04,,OVC070,0.04,VWS V14.01,2013-03-18 07:59:00,
2013-03-18 01:00:00,33.3,32.8,28.97,South,180,0.0,0.0,98,0.04,,OVC045,0.04,VWS V14.01,2013-03-18 08:00:00,
2013-03-18 01:04:00,33.3,32.8,28.97,ENE,68,0.0,0.0,98,0.04,,OVC110,0.04,VWS V14.01,2013-03-18 08:04:00,
2013-03-18 01:09:00,33.3,32.8,28.97,WSW,248,0.0,0.0,98,0.04,,OVC110,0.04,VWS V14.01,2013-03-18 08:09:00,
2013-03-18 01:14:00,33.3,32.8,28.97,SSW,202,0.0,0.0,98,0.04,,OVC110,0.04,VWS V14.01,2013-03-18 08:14:00,
2013-03-18 01:19:00,33.3,32.8,28.97,SSW,202,1.1,1.1,98,0.04,,OVC110,0.04,VWS V14.01,2013-03-18 08:19:00,
2013-03-18 01:24:00,33.3,32.8,28.97,WSW,248,0.9,0.9,98,0.04,,OVC110,0.04,VWS V14.01,2013-03-18 08:24:00,
2013-03-18 01:29:00,33.3,32.8,28.97,ENE,68,1.6,1.6,98,0.04,,OVC110,0.04,VWS V14.01,2013-03-18 08:29:00,
2013-03-18 01:30:00,33.3,32.8,28.97,ENE,68,0.0,0.0,98,0.04,,OVC045,0.04,VWS V14.01,2013-03-18 08:30:00,
2013-03-18 01:34:00,33.4,32.9,28.97,NE,45,0.0,0.0,98,0.04,,OVC110,0.04,VWS V14.01,2013-03-18 08:34:00,
2013-03-18 01:39:00,33.4,32.9,28.97,SSW,202,0.9,0.9,98,0.04,,OVC110,0.04,VWS V14.01,2013-03-18 08:39:00,
2013-03-18 01:44:00,33.4,32.9,28.97,SSW,202,0.0,0.0,98,0.04,,OVC110,0.04,VWS V14.01,2013-03-18 08:44:00,
2013-03-18 01:49:00,33.4,32.9,28.97,SSW,202,0.0,0.0,98,0.04,,OVC110,0.04,VWS V14.01,2013-03-18 08:49:00,
2013-03-18 01:54:00,33.6,33.1,28.97,SSE,158,0.0,0.0,98,0.04,,OVC110,0.04,VWS V14.01,2013-03-18 08:54:00,
2013-03-18 01:59:00,33.6,33.1,28.97,SE,135,0.0,0.0,98,0.04,,OVC110,0.04,VWS V14.01,2013-03-18 08:59:00,
2013-03-18 02:00:00,33.6,33.1,28.97,SE,135,0.0,0.0,98,0.04,,OVC045,0.04,VWS V14.01,2013-03-18 09:00:00,
2013-03-18 02:04:00,33.6,33.1,28.97,SE,135,0.0,0.0,98,0.00,,OVC016,0.04,VWS V14.01,2013-03-18 09:04:00,
2013-03-18 02:09:00,33.6,33.1,28.94,SE,135,0.0,0.0,98,0.00,,OVC016,0.04,VWS V14.01,2013-03-18 09:09:00,
2013-03-18 02:14:00,33.6,33.1,28.94,SE,135,0.0,0.0,98,0.00,,OVC016,0.04,VWS V14.01,2013-03-18 09:14:00,
2013-03-18 02:19:00,33.6,33.1,28.94,West,270,0.0,0.0,98,0.00,,OVC016,0.04,VWS V14.01,2013-03-18 09:19:00,
2013-03-18 02:24:00,33.6,33.1,28.94,West,270,0.0,0.0,98,0.00,,OVC016,0.04,VWS V14.01,2013-03-18 09:24:00,
2013-03-18 02:29:00,33.6,33.1,28.94,West,270,0.0,0.0,98,0.00,,OVC016,0.04,VWS V14.01,2013-03-18 09:29:00,
2013-03-18 02:30:00,33.6,33.1,28.94,West,270,0.0,0.0,98,0.00,,OVC045,0.04,VWS V14.01,2013-03-18 09:30:00,
2013-03-18 02:34:00,33.6,33.1,28.94,SSW,202,1.1,1.1,98,0.00,,OVC016,0.04,VWS V14.01,2013-03-18 09:34:00,
2013-03-18 02:39:00,33.6,33.1,28.94,South,180,1.1,1.1,98,0.00,,OVC016,0.04,VWS V14.01,2013-03-18 09:39:00,
2013-03-18 02:44:00,33.6,33.1,28.94,East,90,0.0,0.0,98,0.00,,OVC016,0.04,VWS V14.01,2013-03-18 09:44:00,
2013-03-18 02:49:00,33.6,33.1,28.94,SSW,202,1.1,1.1,98,0.00,,OVC016,0.04,VWS V14.01,2013-03-18 09:49:00,
2013-03-18 02:54:00,33.6,33.1,28.94,NW,315,1.1,1.1,98,0.00,,OVC016,0.04,VWS V14.01,2013-03-18 09:54:00,
2013-03-18 02:59:00,33.6,33.1,28.94,ENE,68,1.1,1.1,98,0.00,,OVC016,0.04,VWS V14.01,2013-03-18 09:59:00,
2013-03-18 03:00:00,33.6,33.1,28.94,NE,45,1.6,1.6,98,0.00,,OVC045,0.04,VWS V14.01,2013-03-18 10:00:00,
2013-03-18 03:04:00,33.6,33.1,28.94,WNW,292,0.0,0.0,98,0.00,,OVC080,0.04,VWS V14.01,2013-03-18 10:04:00,
2013-03-18 03:09:00,33.4,32.9,28.94,NNE,22,0.0,0.0,98,0.00,,OVC080,0.04,VWS V14.01,2013-03-18 10:09:00,
2013-03-18 03:14:00,33.4,32.9,28.94,SSW,202,0.0,0.0,98,0.00,,OVC080,0.04,VWS V14.01,2013-03-18 10:14:00,
2013-03-18 03:19:00,33.4,32.9,28.94,North,0,0.0,0.0,98,0.00,,OVC080,0.04,VWS V14.01,2013-03-18 10:19:00,
2013-03-18 03:24:00,33.4,32.9,28.94,West,270,0.0,0.0,98,0.00,,OVC080,0.04,VWS V14.01,2013-03-18 10:24:00,
2013-03-18 03:29:00,33.6,33.1,28.94,WSW,248,0.0,0.0,98,0.04,,OVC080,0.08,VWS V14.01,2013-03-18 10:29:00,
2013-03-18 03:30:00,33.6,33.1,28.94,WNW,292,0.0,0.0,98,0.04,,OVC045,0.08,VWS V14.01,2013-03-18 10:30:00,
2013-03-18 03:34:00,33.6,33.1,28.94,NW,315,0.0,0.0,98,0.04,,OVC080,0.08,VWS V14.01,2013-03-18 10:34:00,
2013-03-18 03:39:00,33.6,33.1,28.94,North,0,0.0,0.0,98,0.04,,OVC080,0.08,VWS V14.01,2013-03-18 10:39:00,
2013-03-18 03:44:00,33.6,33.1,28.94,NNW,338,0.9,0.9,98,0.04,,OVC080,0.08,VWS V14.01,2013-03-18 10:44:00,
2013-03-18 03:49:00,33.8,33.3,28.94,NNW,338,2.0,2.0,98,0.04,,OVC080,0.08,VWS V14.01,2013-03-18 10:49:00,
2013-03-18 03:54:00,33.8,33.3,28.94,WNW,292,0.0,0.0,98,0.04,,OVC080,0.08,VWS V14.01,2013-03-18 10:54:00,
2013-03-18 03:59:00,33.8,33.3,28.94,South,180,0.0,0.0,98,0.04,,OVC080,0.08,VWS V14.01,2013-03-18 10:59:00,
2013-03-18 04:00:00,33.8,33.3,28.94,West,270,0.0,0.0,98,0.04,,OVC045,0.08,VWS V14.01,2013-03-18 11:00:00,
2013-03-18 04:04:00,33.6,33.1,28.94,ENE,68,0.0,0.0,98,0.04,,OVC075,0.08,VWS V14.01,2013-03-18 11:04:00,
2013-03-18 04:09:00,33.6,33.1,28.94,East,90,0.0,0.0,98,0.04,,OVC075,0.08,VWS V14.01,2013-03-18 11:09:00,
2013-03-18 04:14:00,33.6,33.1,28.94,South,180,0.0,0.0,98,0.04,,OVC075,0.08,VWS V14.01,2013-03-18 11:14:00,
2013-03-18 04:19:00,33.6,33.1,28.94,East,90,0.0,0.0,98,0.04,,OVC075,0.08,VWS V14.01,2013-03-18 11:19:00,
2013-03-18 04:24:00,33.6,33.1,28.94,SSW,202,0.0,0.0,98,0.04,,OVC075,0.08,VWS V14.01,2013-03-18 11:24:00,
2013-03-18 04:29:00,33.6,33.1,28.94,South,180,0.0,0.0,98,0.04,,OVC075,0.08,VWS V14.01,2013-03-18 11:29:00,
2013-03-18 04:30:00,33.6,33.1,28.94,ENE,68,0.0,0.0,98,0.04,,OVC045,0.08,VWS V14.01,2013-03-18 11:30:00,
2013-03-18 04:34:00,33.6,33.1,28.94,SSW,202,1.3,1.3,98,0.00,,OVC055,0.08,VWS V14.01,2013-03-18 11:34:00,
2013-03-18 04:39:00,33.6,33.1,28.97,SW,225,0.0,0.0,98,0.00,,OVC055,0.08,VWS V14.01,2013-03-18 11:39:00,
2013-03-18 04:44:00,33.8,33.3,28.97,NW,315,0.0,0.0,98,0.00,,OVC055,0.08,VWS V14.01,2013-03-18 11:44:00,
2013-03-18 04:49:00,33.8,33.3,28.97,WNW,292,2.2,2.2,98,0.00,,OVC055,0.08,VWS V14.01,2013-03-18 11:49:00,
2013-03-18 04:54:00,34.0,33.5,28.97,North,0,2.0,2.0,98,0.00,,OVC055,0.08,VWS V14.01,2013-03-18 11:54:00,
2013-03-18 04:59:00,34.0,33.5,28.97,SSW,202,0.0,0.0,98,0.00,,OVC055,0.08,VWS V14.01,2013-03-18 11:59:00,
2013-03-18 05:00:00,34.0,33.5,28.97,SW,225,0.0,0.0,98,0.00,,OVC045,0.08,VWS V14.01,2013-03-18 12:00:00,
2013-03-18 05:04:00,34.0,33.5,28.97,NW,315,0.0,0.0,98,0.00,,OVC055,0.08,VWS V14.01,2013-03-18 12:04:00,
2013-03-18 05:09:00,34.0,33.5,28.97,NW,315,2.0,2.0,98,0.00,,OVC055,0.08,VWS V14.01,2013-03-18 12:09:00,
2013-03-18 05:14:00,34.2,33.7,28.97,NNW,338,1.1,1.1,98,0.00,,OVC055,0.08,VWS V14.01,2013-03-18 12:14:00,
2013-03-18 05:19:00,34.2,33.7,28.97,SW,225,1.3,1.3,98,0.00,,OVC055,0.08,VWS V14.01,2013-03-18 12:19:00,
2013-03-18 05:24:00,34.2,33.7,28.97,SSE,158,0.0,0.0,98,0.00,,OVC055,0.08,VWS V14.01,2013-03-18 12:24:00,
2013-03-18 05:29:00,34.2,33.7,28.97,South,180,0.0,0.0,98,0.00,,OVC055,0.08,VWS V14.01,2013-03-18 12:29:00,
2013-03-18 05:30:00,34.0,33.5,28.97,SSW,202,1.3,1.3,98,0.00,,OVC045,0.08,VWS V14.01,2013-03-18 12:30:00,
2013-03-18 05:34:00,34.0,33.5,28.97,North,0,0.0,0.0,98,0.04,,OVC060,0.12,VWS V14.01,2013-03-18 12:34:00,
2013-03-18 05:39:00,34.2,33.7,28.97,West,270,0.9,0.9,98,0.04,,OVC060,0.12,VWS V14.01,2013-03-18 12:39:00,
2013-03-18 05:44:00,34.0,33.5,28.97,NW,315,0.0,0.0,98,0.04,,OVC060,0.12,VWS V14.01,2013-03-18 12:44:00,
2013-03-18 05:49:00,34.0,33.5,28.97,NW,315,0.9,0.9,98,0.04,,OVC060,0.12,VWS V14.01,2013-03-18 12:49:00,
2013-03-18 05:54:00,34.2,33.7,28.97,WSW,248,1.1,1.1,98,0.04,,OVC060,0.12,VWS V14.01,2013-03-18 12:54:00,
2013-03-18 05:59:00,34.2,33.7,28.97,NE,45,0.0,0.0,98,0.04,,OVC060,0.12,VWS V14.01,2013-03-18 12:59:00,
2013-03-18 06:00:00,34.2,33.7,28.97,East,90,0.0,0.0,98,0.04,,OVC045,0.12,VWS V14.01,2013-03-18 13:00:00,
2013-03-18 06:04:00,34.0,33.5,28.97,West,270,1.3,1.3,98,0.04,,OVC060,0.12,VWS V14.01,2013-03-18 13:04:00,
2013-03-18 06:09:00,34.2,33.7,28.97,NNW,338,0.0,0.0,98,0.04,,OVC060,0.12,VWS V14.01,2013-03-18 13:09:00,
2013-03-18 06:14:00,34.0,33.5,28.97,South,180,0.0,0.0,98,0.04,,OVC060,0.12,VWS V14.01,2013-03-18 13:14:00,
2013-03-18 06:19:00,34.0,33.5,28.97,West,270,0.0,0.0,98,0.04,,OVC060,0.12,VWS V14.01,2013-03-18 13:19:00,
2013-03-18 06:24:00,34.0,33.5,28.97,ESE,112,0.0,0.0,98,0.04,,OVC060,0.12,VWS V14.01,2013-03-18 13:24:00,
2013-03-18 06:29:00,34.0,33.5,28.97,WSW,248,0.0,0.0,98,0.04,,OVC060,0.12,VWS V14.01,2013-03-18 13:29:00,
2013-03-18 06:30:00,34.0,33.5,28.97,SSE,158,1.6,1.6,98,0.04,,OVC045,0.12,VWS V14.01,2013-03-18 13:30:00,
2013-03-18 06:34:00,34.0,33.5,28.97,SE,135,0.0,0.0,98,0.04,,-RA,0.12,VWS V14.01,2013-03-18 13:34:00,
2013-03-18 06:39:00,34.0,33.5,28.97,East,90,0.0,0.0,98,0.04,,-RA,0.12,VWS V14.01,2013-03-18 13:39:00,
2013-03-18 06:44:00,34.0,33.5,28.97,East,90,0.0,0.0,98,0.04,,-RA,0.12,VWS V14.01,2013-03-18 13:44:00,
2013-03-18 06:49:00,34.0,33.5,28.97,West,270,0.0,0.0,98,0.04,,-RA,0.12,VWS V14.01,2013-03-18 13:49:00,
2013-03-18 06:54:00,34.0,33.5,28.97,South,180,0.0,0.0,98,0.04,,-RA,0.12,VWS V14.01,2013-03-18 13:54:00,
2013-03-18 06:59:00,34.0,33.5,28.97,SSW,202,0.0,0.0,98,0.04,,-RA,0.12,VWS V14.01,2013-03-18 13:59:00,
2013-03-18 07:00:00,34.0,33.5,28.97,SSW,202,0.0,0.0,98,0.04,,OVC045,0.12,VWS V14.01,2013-03-18 14:00:00,
2013-03-18 07:04:00,34.0,33.5,28.97,NNW,338,0.0,0.0,98,0.00,,-RA,0.12,VWS V14.01,2013-03-18 14:04:00,
2013-03-18 07:09:00,34.0,33.5,28.97,NNE,22,0.9,0.9,98,0.00,,-RA,0.12,VWS V14.01,2013-03-18 14:09:00,
2013-03-18 07:14:00,34.0,33.5,28.97,West,270,0.0,0.0,98,0.00,,-RA,0.12,VWS V14.01,2013-03-18 14:14:00,
2013-03-18 07:19:00,33.8,33.3,28.97,ENE,68,0.0,0.0,98,0.00,,-RA,0.12,VWS V14.01,2013-03-18 14:19:00,
2013-03-18 07:24:00,33.8,33.3,28.97,WNW,292,1.6,1.6,98,0.04,,-RA,0.16,VWS V14.01,2013-03-18 14:24:00,
2013-03-18 07:29:00,33.6,33.1,28.97,SSW,202,0.0,0.0,98,0.04,,-RA,0.16,VWS V14.01,2013-03-18 14:29:00,
2013-03-18 07:30:00,33.4,32.9,28.97,SSW,202,0.0,0.0,98,0.04,,OVC045,0.16,VWS V14.01,2013-03-18 14:30:00,
2013-03-18 07:34:00,33.4,32.9,28.97,WSW,248,0.0,0.0,98,0.04,,-RA,0.16,VWS V14.01,2013-03-18 14:34:00,
2013-03-18 07:39:00,33.3,32.8,28.97,East,90,0.0,0.0,98,0.04,,-RA,0.16,VWS V14.01,2013-03-18 14:39:00,
2013-03-18 07:44:00,33.3,32.8,28.97,South,180,0.0,0.0,98,0.04,,-RA,0.16,VWS V14.01,2013-03-18 14:44:00,
2013-03-18 07:49:00,33.3,32.8,28.97,SSW,202,0.0,0.0,98,0.04,,-RA,0.16,VWS V14.01,2013-03-18 14:49:00,
2013-03-18 07:54:00,33.3,32.8,28.97,NE,45,0.0,0.0,98,0.04,,-RA,0.16,VWS V14.01,2013-03-18 14:54:00,
2013-03-18 07:59:00,33.3,32.8,28.97,South,180,0.0,0.0,98,0.04,,-RA,0.16,VWS V14.01,2013-03-18 14:59:00,
2013-03-18 08:00:00,33.3,32.8,28.97,SE,135,0.0,0.0,98,0.04,,OVC045,0.16,VWS V14.01,2013-03-18 15:00:00,
2013-03-18 08:04:00,33.3,32.8,28.97,West,270,1.3,1.3,98,0.04,,OVC018,0.16,VWS V14.01,2013-03-18 15:04:00,
2013-03-18 08:09:00,33.3,32.8,28.97,WNW,292,0.0,0.0,98,0.04,,OVC018,0.16,VWS V14.01,2013-03-18 15:09:00,
2013-03-18 08:14:00,33.4,32.9,28.97,SSE,158,0.0,0.0,98,0.04,,OVC018,0.16,VWS V14.01,2013-03-18 15:14:00,
2013-03-18 08:19:00,33.4,32.9,28.97,West,270,1.1,1.1,98,0.04,,OVC018,0.16,VWS V14.01,2013-03-18 15:19:00,
2013-03-18 08:24:00,33.6,33.1,28.97,SSW,202,0.0,0.0,98,0.04,,OVC018,0.16,VWS V14.01,2013-03-18 15:24:00,
2013-03-18 08:29:00,33.6,33.1,28.97,WSW,248,0.0,0.0,98,0.04,,OVC018,0.16,VWS V14.01,2013-03-18 15:29:00,
2013-03-18 08:30:00,33.6,33.1,28.97,WNW,292,0.0,0.0,98,0.04,,OVC045,0.16,VWS V14.01,2013-03-18 15:30:00,
2013-03-18 08:34:00,33.8,33.3,28.97,WSW,248,1.3,1.3,98,0.00,,OVC023,0.16,VWS V14.01,2013-03-18 15:34:00,
2013-03-18 08:39:00,33.6,33.1,28.97,WSW,248,0.0,0.0,98,0.00,,OVC023,0.16,VWS V14.01,2013-03-18 15:39:00,
2013-03-18 08:44:00,33.6,33.1,28.97,WNW,292,1.1,1.1,98,0.04,,OVC023,0.20,VWS V14.01,2013-03-18 15:44:00,
2013-03-18 08:49:00,33.6,33.1,28.97,SE,135,1.1,1.1,98,0.04,,OVC023,0.20,VWS V14.01,2013-03-18 15:49:00,
2013-03-18 08:54:00,33.8,33.3,28.97,West,270,0.0,0.0,98,0.04,,OVC023,0.20,VWS V14.01,2013-03-18 15:54:00,
2013-03-18 08:59:00,34.0,33.5,28.97,SSE,158,0.0,0.0,98,0.04,,OVC023,0.20,VWS V14.01,2013-03-18 15:59:00,
2013-03-18 09:00:00,34.0,33.5,28.97,NE,45,0.0,0.0,98,0.04,,OVC045,0.20,VWS V14.01,2013-03-18 16:00:00,
2013-03-18 09:04:00,34.0,33.5,28.97,SE,135,0.0,0.0,98,0.04,,OVC020,0.20,VWS V14.01,2013-03-18 16:04:00,
2013-03-18 09:08:00,34.2,33.7,28.97,North,0,0.0,0.0,98,0.04,,OVC020,0.20,VWS V14.01,2013-03-18 16:08:00,
2013-03-18 09:13:00,34.5,34.0,28.97,WSW,248,0.9,0.9,98,0.04,,OVC020,0.20,VWS V14.01,2013-03-18 16:13:00,
2013-03-18 09:18:00,34.7,34.2,28.97,North,0,1.3,1.3,98,0.09,,OVC020,0.25,VWS V14.01,2013-03-18 16:18:00,
2013-03-18 09:23:00,34.9,34.4,28.97,SE,135,0.0,0.0,98,0.09,,OVC020,0.25,VWS V14.01,2013-03-18 16:23:00,
2013-03-18 09:28:00,35.1,34.5,28.97,NNW,338,1.6,1.6,98,0.09,,OVC020,0.25,VWS V14.01,2013-03-18 16:28:00,
2013-03-18 09:30:00,35.1,34.5,28.97,West,270,1.3,1.3,98,0.09,,OVC045,0.25,VWS V14.01,2013-03-18 16:30:00,
2013-03-18 09:33:00,35.4,34.9,28.97,South,180,0.0,0.0,98,0.09,,-RA,0.25,VWS V14.01,2013-03-18 16:33:00,
2013-03-18 09:38:00,35.6,35.1,28.97,SSE,158,0.0,0.0,98,0.09,,-RA,0.25,VWS V14.01,2013-03-18 16:38:00,
2013-03-18 09:43:00,35.8,35.3,28.97,East,90,0.9,0.9,98,0.09,,-RA,0.25,VWS V14.01,2013-03-18 16:43:00,
2013-03-18 09:48:00,36.0,35.5,28.97,ENE,68,0.9,0.9,98,0.09,,-RA,0.25,VWS V14.01,2013-03-18 16:48:00,
2013-03-18 09:53:00,36.1,35.6,28.97,NNW,338,2.0,2.0,98,0.09,,-RA,0.25,VWS V14.01,2013-03-18 16:53:00,
2013-03-18 09:58:00,36.7,36.2,28.97,NNW,338,0.0,0.0,98,0.09,,-RA,0.25,VWS V14.01,2013-03-18 16:58:00,
2013-03-18 10:00:00,36.7,36.2,28.97,SSW,202,1.6,1.6,98,0.09,,OVC045,0.25,VWS V14.01,2013-03-18 17:00:00,
2013-03-18 10:03:00,36.9,36.3,28.97,West,270,0.0,0.0,98,0.05,,,0.25,VWS V14.01,2013-03-18 17:03:00,
2013-03-18 10:08:00,37.0,36.5,28.97,North,0,0.0,0.0,98,0.05,,,0.25,VWS V14.01,2013-03-18 17:08:00,
2013-03-18 10:13:00,37.4,36.9,28.97,West,270,0.0,0.0,98,0.05,,,0.25,VWS V14.01,2013-03-18 17:13:00,
2013-03-18 10:18:00,37.6,37.1,28.97,ESE,112,0.0,0.0,98,0.05,,,0.25,VWS V14.01,2013-03-18 17:18:00,
2013-03-18 10:23:00,37.8,37.2,29.00,East,90,0.0,0.0,98,0.05,,,0.25,VWS V14.01,2013-03-18 17:23:00,
2013-03-18 10:28:00,37.9,37.4,29.00,NE,45,2.5,2.5,98,0.05,,,0.25,VWS V14.01,2013-03-18 17:28:00,
2013-03-18 10:30:00,37.8,37.2,29.00,NNW,338,2.5,2.5,98,0.05,,OVC045,0.25,VWS V14.01,2013-03-18 17:30:00,
2013-03-18 10:33:00,37.6,37.1,29.00,NNW,338,1.1,1.1,98,0.04,,,0.29,VWS V14.01,2013-03-18 17:33:00,
2013-03-18 10:38:00,37.6,37.1,29.00,ENE,68,2.0,2.0,98,0.04,,,0.29,VWS V14.01,2013-03-18 17:38:00,
2013-03-18 10:43:00,37.4,36.6,29.00,NNW,338,0.9,0.9,97,0.04,,,0.29,VWS V14.01,2013-03-18 17:43:00,
2013-03-18 10:48:00,37.6,36.5,29.00,NNW,338,1.1,1.1,96,0.04,,,0.29,VWS V14.01,2013-03-18 17:48:00,
2013-03-18 10:53:00,37.8,36.7,29.00,NNE,22,2.7,2.7,96,0.04,,,0.29,VWS V14.01,2013-03-18 17:53:00,
2013-03-18 10:58:00,37.6,36.3,29.00,WNW,292,1.6,1.6,95,0.04,,,0.29,VWS V14.01,2013-03-18 17:58:00,
2013-03-18 11:00:00,37.6,36.3,29.00,West,270,1.6,1.6,95,0.04,,OVC045,0.29,VWS V14.01,2013-03-18 18:00:00,
2013-03-18 11:03:00,37.6,36.3,29.00,WNW,292,2.0,2.0,95,0.04,,BKN038,0.29,VWS V14.01,2013-03-18 18:03:00,
2013-03-18 11:08:00,37.6,36.3,29.00,SE,135,0.0,0.0,95,0.08,,BKN038,0.33,VWS V14.01,2013-03-18 18:08:00,
2013-03-18 11:13:00,37.6,36.3,29.00,ENE,68,1.1,1.1,95,0.08,,BKN038,0.33,VWS V14.01,2013-03-18 18:13:00,
2013-03-18 11:18:00,37.6,36.3,29.00,NNW,338,2.9,2.9,95,0.08,,BKN038,0.33,VWS V14.01,2013-03-18 18:18:00,
2013-03-18 11:23:00,38.5,36.6,29.00,NNW,338,1.3,1.3,93,0.08,,BKN038,0.33,VWS V14.01,2013-03-18 18:23:00,
2013-03-18 11:28:00,38.5,36.6,29.00,East,90,2.7,2.7,93,0.08,,BKN038,0.33,VWS V14.01,2013-03-18 18:28:00,
2013-03-18 11:30:00,38.5,36.6,29.00,East,90,2.2,2.2,93,0.08,,OVC045,0.33,VWS V14.01,2013-03-18 18:30:00,
2013-03-18 11:33:00,38.5,36.1,29.00,NNE,22,1.3,1.3,91,0.08,,BKN038,0.33,VWS V14.01,2013-03-18 18:33:00,
2013-03-18 11:38:00,38.8,36.7,29.00,West,270,0.0,0.0,92,0.08,,BKN038,0.33,VWS V14.01,2013-03-18 18:38:00,
2013-03-18 11:43:00,39.6,38.0,29.00,WSW,248,1.1,1.1,94,0.08,,BKN038,0.33,VWS V14.01,2013-03-18 18:43:00,
2013-03-18 11:48:00,39.7,38.2,29.00,SSE,158,1.6,1.6,94,0.08,,BKN038,0.33,VWS V14.01,2013-03-18 18:48:00,
2013-03-18 11:53:00,39.6,38.0,29.00,East,90,0.9,0.9,94,0.08,,BKN038,0.33,VWS V14.01,2013-03-18 18:53:00,
2013-03-18 11:58:00,39.7,38.2,29.00,West,270,0.0,0.0,94,0.12,,BKN038,0.37,VWS V14.01,2013-03-18 18:58:00,
2013-03-18 12:00:00,39.9,38.3,29.00,NNE,22,1.1,1.1,94,0.12,,OVC045,0.37,VWS V14.01,2013-03-18 19:00:00,
2013-03-18 12:03:00,39.9,38.3,29.00,NW,315,2.0,2.0,94,0.08,,BKN041,0.37,VWS V14.01,2013-03-18 19:03:00,
2013-03-18 12:08:00,39.9,38.1,29.00,ENE,68,1.6,1.6,93,0.08,,BKN041,0.37,VWS V14.01,2013-03-18 19:08:00,
2013-03-18 12:13:00,40.3,38.4,29.00,NNW,338,3.8,3.8,93,0.08,,BKN041,0.37,VWS V14.01,2013-03-18 19:13:00,
2013-03-18 12:18:00,40.5,38.0,29.00,NNW,338,2.5,2.5,91,0.08,,BKN041,0.37,VWS V14.01,2013-03-18 19:18:00,
2013-03-18 12:23:00,41.5,39.1,29.00,SSE,158,2.2,2.2,91,0.08,,BKN041,0.37,VWS V14.01,2013-03-18 19:23:00,
2013-03-18 12:28:00,42.4,40.3,29.00,SSE,158,2.7,2.7,92,0.08,,BKN041,0.37,VWS V14.01,2013-03-18 19:28:00,
2013-03-18 12:30:00,43.0,40.8,29.00,South,180,0.0,0.0,92,0.08,,OVC045,0.37,VWS V14.01,2013-03-18 19:30:00,
2013-03-18 12:33:00,42.3,39.0,29.00,NNE,22,2.5,2.5,88,0.04,,,0.37,VWS V14.01,2013-03-18 19:33:00,
2013-03-18 12:38:00,42.4,38.6,29.00,SSE,158,1.3,1.3,86,0.04,,,0.37,VWS V14.01,2013-03-18 19:38:00,
2013-03-18 12:43:00,42.8,39.2,29.00,NNW,338,3.4,3.4,87,0.04,,,0.37,VWS V14.01,2013-03-18 19:43:00,
2013-03-18 12:48:00,42.3,38.1,29.00,ESE,112,2.7,2.7,85,0.04,,,0.37,VWS V14.01,2013-03-18 19:48:00,
2013-03-18 12:53:00,43.0,39.4,29.00,SSE,158,0.9,0.9,87,0.04,,,0.37,VWS V14.01,2013-03-18 19:53:00,
2013-03-18 12:58:00,43.3,39.7,29.00,SSE,158,0.0,0.0,87,0.04,,,0.37,VWS V14.01,2013-03-18 19:58:00,
2013-03-18 13:00:00,43.7,40.4,29.00,SSW,202,2.0,2.0,88,0.04,,OVC045,0.37,VWS V14.01,2013-03-18 20:00:00,
2013-03-18 13:03:00,43.9,40.6,29.00,SSW,202,2.0,2.0,88,0.00,,,0.37,VWS V14.01,2013-03-18 20:03:00,
2013-03-18 13:08:00,45.3,41.1,29.00,WSW,248,0.0,0.0,85,0.00,,,0.37,VWS V14.01,2013-03-18 20:08:00,
2013-03-18 13:13:00,46.4,42.1,29.00,WNW,292,2.7,2.7,85,0.00,,,0.37,VWS V14.01,2013-03-18 20:13:00,
2013-03-18 13:18:00,46.0,38.2,29.00,NW,315,3.4,3.4,74,0.00,,,0.37,VWS V14.01,2013-03-18 20:18:00,
2013-03-18 13:23:00,45.1,37.0,29.00,NE,45,2.7,2.7,73,0.00,,,0.37,VWS V14.01,2013-03-18 20:23:00,
2013-03-18 13:28:00,45.5,37.7,29.00,NNE,22,3.8,3.8,74,0.00,,,0.37,VWS V14.01,2013-03-18 20:28:00,
2013-03-18 13:30:00,45.3,37.2,29.00,North,0,3.1,3.1,73,0.00,,OVC045,0.37,VWS V14.01,2013-03-18 20:30:00,
2013-03-18 13:33:00,45.3,37.5,29.00,WNW,292,2.5,2.5,74,0.00,,,0.37,VWS V14.01,2013-03-18 20:33:00,
2013-03-18 13:38:00,45.5,37.0,29.00,WSW,248,3.6,3.6,72,0.00,,,0.37,VWS V14.01,2013-03-18 20:38:00,
2013-03-18 13:43:00,45.5,36.7,29.00,WNW,292,3.1,3.1,71,0.00,,,0.37,VWS V14.01,2013-03-18 20:43:00,
2013-03-18 13:48:00,46.9,38.4,29.00,ENE,68,1.3,1.3,72,0.00,,,0.37,VWS V14.01,2013-03-18 20:48:00,
2013-03-18 13:53:00,47.8,38.5,29.00,NNE,22,2.5,2.5,70,0.00,,,0.37,VWS V14.01,2013-03-18 20:53:00,
2013-03-18 13:58:00,48.6,39.2,29.00,SE,135,3.4,3.4,70,0.00,,,0.37,VWS V14.01,2013-03-18 20:58:00,
2013-03-18 14:00:00,48.9,38.5,29.00,NNE,22,1.1,1.1,67,0.00,,OVC045,0.37,VWS V14.01,2013-03-18 21:00:00,
2013-03-18 14:03:00,48.7,37.9,29.00,NNW,338,4.0,4.0,66,0.00,,,0.37,VWS V14.01,2013-03-18 21:03:00,
2013-03-18 14:08:00,47.7,35.7,29.00,NNW,338,2.7,2.7,63,0.00,,,0.37,VWS V14.01,2013-03-18 21:08:00,
2013-03-18 14:13:00,46.6,37.0,29.00,WNW,292,4.0,4.0,69,0.00,,,0.37,VWS V14.01,2013-03-18 21:13:00,
2013-03-18 14:18:00,46.2,37.0,29.00,NNE,22,4.7,4.7,70,0.00,,,0.37,VWS V14.01,2013-03-18 21:18:00,
2013-03-18 14:23:00,45.5,35.2,29.00,NNE,22,2.9,2.9,67,0.00,,,0.37,VWS V14.01,2013-03-18 21:23:00,
2013-03-18 14:28:00,45.1,35.2,29.00,North,0,3.8,3.8,68,0.00,,,0.37,VWS V14.01,2013-03-18 21:28:00,
2013-03-18 14:30:00,45.1,36.0,29.00,NNW,338,3.6,3.6,70,0.00,,OVC045,0.37,VWS V14.01,2013-03-18 21:30:00,
2013-03-18 14:33:00,45.1,36.3,29.00,WNW,292,2.5,2.5,71,0.00,,,0.37,VWS V14.01,2013-03-18 21:33:00,
2013-03-18 14:38:00,45.1,36.7,29.00,NNE,22,1.3,1.3,72,0.00,,,0.37,VWS V14.01,2013-03-18 21:38:00,
2013-03-18 14:43:00,45.0,37.2,29.00,WSW,248,1.3,1.3,74,0.00,,,0.37,VWS V14.01,2013-03-18 21:43:00,
2013-03-18 14:48:00,45.0,37.9,29.00,South,180,1.1,1.1,76,0.00,,,0.37,VWS V14.01,2013-03-18 21:48:00,
2013-03-18 14:53:00,44.2,37.5,29.00,SSW,202,2.0,2.0,77,0.00,,,0.37,VWS V14.01,2013-03-18 21:53:00,
2013-03-18 14:58:00,44.8,38.0,29.00,SSW,202,1.3,1.3,77,0.00,,,0.37,VWS V14.01,2013-03-18 21:58:00,
2013-03-18 15:00:00,45.1,38.7,29.00,West,270,2.7,2.7,78,0.00,,OVC045,0.37,VWS V14.01,2013-03-18 22:00:00,
2013-03-18 15:03:00,45.1,38.4,29.00,North,0,2.0,2.0,77,0.00,,,0.37,VWS V14.01,2013-03-18 22:03:00,
2013-03-18 15:08:00,45.1,38.0,29.00,NW,315,2.7,2.7,76,0.00,,,0.37,VWS V14.01,2013-03-18 22:08:00,
2013-03-18 15:13:00,46.9,40.5,29.00,South,180,5.8,5.8,78,0.00,,,0.37,VWS V14.01,2013-03-18 22:13:00,
2013-03-18 15:18:00,48.2,39.6,29.00,North,0,3.6,3.6,72,0.00,,,0.37,VWS V14.01,2013-03-18 22:18:00,
2013-03-18 15:23:00,47.5,35.9,29.00,NW,315,2.5,2.5,64,0.00,,,0.37,VWS V14.01,2013-03-18 22:23:00,
2013-03-18 15:28:00,48.9,38.8,29.00,SSW,202,0.0,0.0,68,0.00,,,0.37,VWS V14.01,2013-03-18 22:28:00,
2013-03-18 15:30:00,49.3,39.6,29.00,SW,225,1.3,1.3,69,0.00,,OVC045,0.37,VWS V14.01,2013-03-18 22:30:00,
2013-03-18 15:33:00,49.6,39.5,29.00,West,270,2.7,2.7,68,0.00,,,0.37,VWS V14.01,2013-03-18 22:33:00,
2013-03-18 15:38:00,48.7,38.3,29.00,SSW,202,2.5,2.5,67,0.00,,,0.37,VWS V14.01,2013-03-18 22:38:00,
2013-03-18 15:43:00,47.3,37.3,29.00,WSW,248,2.9,2.9,68,0.00,,,0.37,VWS V14.01,2013-03-18 22:43:00,
2013-03-18 15:48:00,46.6,37.0,29.00,SSW,202,2.9,2.9,69,0.00,,,0.37,VWS V14.01,2013-03-18 22:48:00,
2013-03-18 15:53:00,45.7,36.8,29.00,SSW,202,6.0,6.0,71,0.00,,,0.37,VWS V14.01,2013-03-18 22:53:00,
2013-03-18 15:58:00,45.1,36.3,29.00,SSW,202,2.5,2.5,71,0.00,,,0.37,VWS V14.01,2013-03-18 22:58:00,
2013-03-18 16:00:00,45.5,37.0,29.00,South,180,2.0,2.0,72,0.00,,OVC045,0.37,VWS V14.01,2013-03-18 23:00:00,
2013-03-18 16:03:00,46.2,38.1,29.00,SSW,202,4.0,4.0,73,0.00,,SCT050,0.37,VWS V14.01,2013-03-18 23:03:00,
2013-03-18 16:08:00,45.1,36.3,29.00,SW,225,4.0,4.0,71,0.00,,SCT050,0.37,VWS V14.01,2013-03-18 23:08:00,
2013-03-18 16:13:00,45.1,37.0,29.00,WNW,292,0.9,0.9,73,0.00,,SCT050,0.37,VWS V14.01,2013-03-18 23:13:00,
2013-03-18 16:18:00,45.1,37.7,29.00,WNW,292,1.3,1.3,75,0.00,,SCT050,0.37,VWS V14.01,2013-03-18 23:18:00,
2013-03-18 16:23:00,45.1,37.7,29.03,SSW,202,2.2,2.2,75,0.00,,SCT050,0.37,VWS V14.01,2013-03-18 23:23:00,
2013-03-18 16:28:00,45.1,38.4,29.03,WSW,248,3.1,3.1,77,0.00,,SCT050,0.37,VWS V14.01,2013-03-18 23:28:00,
2013-03-18 16:30:00,45.1,38.7,29.03,North,0,1.6,1.6,78,0.00,,OVC045,0.37,VWS V14.01,2013-03-18 23:30:00,
2013-03-18 16:33:00,45.0,37.9,29.03,WNW,292,1.6,1.6,76,0.00,,,0.37,VWS V14.01,2013-03-18 23:33:00,
2013-03-18 16:38:00,47.1,38.9,29.00,SSW,202,1.1,1.1,73,0.00,,,0.37,VWS V14.01,2013-03-18 23:38:00,
2013-03-18 16:43:00,48.7,37.9,29.00,South,180,1.3,1.3,66,0.00,,,0.37,VWS V14.01,2013-03-18 23:43:00,
2013-03-18 16:48:00,49.3,36.4,29.00,WSW,248,2.5,2.5,61,0.00,,,0.37,VWS V14.01,2013-03-18 23:48:00,
2013-03-18 16:53:00,49.6,36.8,29.03,SSW,202,3.8,3.8,61,0.00,,,0.37,VWS V14.01,2013-03-18 23:53:00,
2013-03-18 16:58:00,50.0,38.3,29.03,North,0,0.0,0.0,64,0.00,,,0.37,VWS V14.01,2013-03-18 23:58:00,
2013-03-18 17:00:00,50.2,38.1,29.03,SSW,202,2.5,2.5,63,0.00,,OVC045,0.37,VWS V14.01,2013-03-19 00:00:00,
2013-03-18 17:03:00,50.5,38.0,29.03,SSW,202,2.5,2.5,62,0.00,,,0.37,VWS V14.01,2013-03-19 00:03:00,
2013-03-18 17:08:00,50.5,37.6,29.00,North,0,2.0,2.0,61,0.00,,,0.37,VWS V14.01,2013-03-19 00:08:00,
2013-03-18 17:13:00,50.4,36.6,29.00,NNE,22,3.6,3.6,59,0.00,,,0.37,VWS V14.01,2013-03-19 00:13:00,
2013-03-18 17:18:00,49.8,38.2,29.00,NNW,338,2.2,2.2,64,0.00,,,0.37,VWS V14.01,2013-03-19 00:18:00,
2013-03-18 17:23:00,49.6,37.6,29.00,SSW,202,4.0,4.0,63,0.00,,,0.37,VWS V14.01,2013-03-19 00:23:00,
2013-03-18 17:28:00,49.3,38.4,29.00,SE,135,1.3,1.3,66,0.00,,,0.37,VWS V14.01,2013-03-19 00:28:00,
2013-03-18 17:30:00,49.1,38.2,29.00,WNW,292,1.1,1.1,66,0.00,,OVC045,0.37,VWS V14.01,2013-03-19 00:30:00,
2013-03-18 17:33:00,48.6,38.5,29.00,NNW,338,1.1,1.1,68,0.00,,BKN050,0.37,VWS V14.01,2013-03-19 00:33:00,
2013-03-18 17:38:00,48.0,38.0,29.00,South,180,1.3,1.3,68,0.00,,BKN050,0.37,VWS V14.01,2013-03-19 00:38:00,
2013-03-18 17:43:00,47.7,38.4,29.00,NW,315,0.0,0.0,70,0.00,,BKN050,0.37,VWS V14.01,2013-03-19 00:43:00,
2013-03-18 17:48:00,47.1,37.8,29.00,ESE,112,0.0,0.0,70,0.00,,BKN050,0.37,VWS V14.01,2013-03-19 00:48:00,
2013-03-18 17:53:00,45.9,37.7,29.00,South,180,0.0,0.0,73,0.00,,BKN050,0.37,VWS V14.01,2013-03-19 00:53:00,
2013-03-18 17:58:00,45.0,37.2,29.00,South,180,0.0,0.0,74,0.00,,BKN050,0.37,VWS V14.01,2013-03-19 00:58:00,
2013-03-18 18:00:00,44.2,36.8,29.00,WSW,248,0.0,0.0,75,0.00,,OVC045,0.37,VWS V14.01,2013-03-19 01:00:00,
2013-03-18 18:03:00,43.7,36.6,29.00,North,0,1.6,1.6,76,0.00,,SCT050,0.37,VWS V14.01,2013-03-19 01:03:00,
2013-03-18 18:08:00,42.6,35.9,29.00,West,270,2.0,2.0,77,0.00,,SCT050,0.37,VWS V14.01,2013-03-19 01:08:00,
2013-03-18 18:13:00,42.1,35.7,29.00,WNW,292,1.1,1.1,78,0.00,,SCT050,0.37,VWS V14.01,2013-03-19 01:13:00,
2013-03-18 18:18:00,41.2,35.2,29.00,WSW,248,0.0,0.0,79,0.00,,SCT050,0.37,VWS V14.01,2013-03-19 01:18:00,
2013-03-18 18:23:00,40.6,35.3,28.97,SW,225,0.0,0.0,81,0.00,,SCT050,0.37,VWS V14.01,2013-03-19 01:23:00,
2013-03-18 18:28:00,40.3,35.2,28.97,SSW,202,1.3,1.3,82,0.00,,SCT050,0.37,VWS V14.01,2013-03-19 01:28:00,
2013-03-18 18:30:00,39.9,34.9,28.97,NW,315,0.9,0.9,82,0.00,,OVC045,0.37,VWS V14.01,2013-03-19 01:30:00,
2013-03-18 18:33:00,39.7,35.0,28.97,WSW,248,0.0,0.0,83,0.00,,BKN050,0.37,VWS V14.01,2013-03-19 01:33:00,
2013-03-18 18:37:00,39.2,34.8,28.97,SSW,202,0.0,0.0,84,0.00,,BKN050,0.37,VWS V14.01,2013-03-19 01:37:00,
2013-03-18 18:42:00,38.8,34.7,28.97,West,270,2.0,2.0,85,0.00,,BKN050,0.37,VWS V14.01,2013-03-19 01:42:00,
2013-03-18 18:48:00,38.5,34.7,28.97,SSW,202,0.0,0.0,86,0.00,,BKN050,0.37,VWS V14.01,2013-03-19 01:48:00,
2013-03-18 18:52:00,37.9,34.4,28.97,SSW,202,2.0,2.0,87,0.00,,BKN050,0.37,VWS V14.01,2013-03-19 01:52:00,
2013-03-18 18:57:00,37.6,34.1,28.97,South,180,0.0,0.0,87,0.00,,BKN050,0.37,VWS V14.01,2013-03-19 01:57:00,
2013-03-18 19:00:00,37.4,33.9,28.97,SSW,202,0.0,0.0,87,0.00,,OVC045,0.37,VWS V14.01,2013-03-19 02:00:00,
2013-03-18 19:03:00,37.2,34.0,28.97,SSW,202,0.0,0.0,88,0.00,,CLR,0.37,VWS V14.01,2013-03-19 02:03:00,
2013-03-18 19:08:00,36.9,33.4,28.97,WSW,248,1.1,1.1,87,0.00,,CLR,0.37,VWS V14.01,2013-03-19 02:08:00,
2013-03-18 19:13:00,36.3,33.1,28.97,SSW,202,1.3,1.3,88,0.00,,CLR,0.37,VWS V14.01,2013-03-19 02:13:00,
2013-03-18 19:17:00,35.8,32.6,28.97,SSW,202,0.0,0.0,88,0.00,,CLR,0.37,VWS V14.01,2013-03-19 02:17:00,
2013-03-18 19:22:00,35.4,32.5,28.97,South,180,0.0,0.0,89,0.00,,CLR,0.37,VWS V14.01,2013-03-19 02:22:00,
2013-03-18 19:27:00,34.9,32.0,28.97,South,180,0.9,0.9,89,0.00,,CLR,0.37,VWS V14.01,2013-03-19 02:27:00,
2013-03-18 19:30:00,34.7,31.8,28.97,NNE,22,0.0,0.0,89,0.00,,OVC045,0.37,VWS V14.01,2013-03-19 02:30:00,
2013-03-18 19:32:00,34.5,31.6,28.97,SSW,202,2.0,2.0,89,0.00,,CLR,0.37,VWS V14.01,2013-03-19 02:32:00,
2013-03-18 19:37:00,34.3,31.4,28.97,North,0,0.0,0.0,89,0.00,,CLR,0.37,VWS V14.01,2013-03-19 02:37:00,
2013-03-18 19:42:00,34.0,31.1,28.97,NNW,338,1.6,1.6,89,0.00,,CLR,0.37,VWS V14.01,2013-03-19 02:42:00,
2013-03-18 19:47:00,33.8,30.9,28.97,WNW,292,0.9,0.9,89,0.00,,CLR,0.37,VWS V14.01,2013-03-19 02:47:00,
2013-03-18 19:52:00,33.3,30.6,28.97,South,180,0.0,0.0,90,0.00,,CLR,0.37,VWS V14.01,2013-03-19 02:52:00,
2013-03-18 19:57:00,33.1,30.5,28.97,NE,45,0.0,0.0,90,0.00,,CLR,0.37,VWS V14.01,2013-03-19 02:57:00,
2013-03-18 20:00:00,32.9,30.3,28.97,NNE,22,0.0,0.0,90,0.00,,OVC045,0.37,VWS V14.01,2013-03-19 03:00:00,
2013-03-18 20:02:00,32.7,30.1,28.97,NNE,22,0.0,0.0,90,0.00,,CLR,0.37,VWS V14.01,2013-03-19 03:02:00,
2013-03-18 20:07:00,32.4,29.8,28.97,NNE,22,0.0,0.0,90,0.00,,CLR,0.37,VWS V14.01,2013-03-19 03:07:00,
2013-03-18 20:12:00,32.2,29.9,28.97,SSW,202,0.0,0.0,91,0.00,,CLR,0.37,VWS V14.01,2013-03-19 03:12:00,
2013-03-18 20:17:00,31.8,29.2,28.97,SSE,158,0.0,0.0,90,0.00,,CLR,0.37,VWS V14.01,2013-03-19 03:17:00,
2013-03-18 20:22:00,31.6,29.3,28.97,SSE,158,0.9,0.9,91,0.00,,CLR,0.37,VWS V14.01,2013-03-19 03:22:00,
2013-03-18 20:27:00,31.3,28.7,28.97,SSW,202,0.0,0.0,90,0.00,,CLR,0.37,VWS V14.01,2013-03-19 03:27:00,
2013-03-18 20:30:00,31.1,28.8,28.97,SSW,202,0.0,0.0,91,0.00,,OVC045,0.37,VWS V14.01,2013-03-19 03:30:00,
2013-03-18 20:32:00,31.1,28.8,28.97,SSW,202,0.0,0.0,91,0.00,,CLR,0.37,VWS V14.01,2013-03-19 03:32:00,
2013-03-18 20:37:00,30.9,28.6,28.97,SSW,202,0.0,0.0,91,0.00,,CLR,0.37,VWS V14.01,2013-03-19 03:37:00,
2013-03-18 20:42:00,30.7,28.4,28.97,SSE,158,0.0,0.0,91,0.00,,CLR,0.37,VWS V14.01,2013-03-19 03:42:00,
2013-03-18 20:47:00,30.4,28.1,28.97,South,180,0.0,0.0,91,0.00,,CLR,0.37,VWS V14.01,2013-03-19 03:47:00,
2013-03-18 20:52:00,30.4,28.3,28.97,SSE,158,0.0,0.0,92,0.00,,CLR,0.37,VWS V14.01,2013-03-19 03:52:00,
2013-03-18 20:57:00,30.2,28.2,28.97,SSE,158,0.0,0.0,92,0.00,,CLR,0.37,VWS V14.01,2013-03-19 03:57:00,
2013-03-18 21:00:00,30.0,28.0,28.97,SE,135,0.0,0.0,92,0.00,,CLR,0.37,VWS V14.01,2013-03-19 04:00:00,
2013-03-18 21:05:00,29.8,27.8,28.97,NE,45,0.0,0.0,92,0.00,,CLR,0.37,VWS V14.01,2013-03-19 04:05:00,
2013-03-18 21:10:00,29.7,27.6,29.00,SSW,202,0.0,0.0,92,0.00,,CLR,0.37,VWS V14.01,2013-03-19 04:10:00,
2013-03-18 21:15:00,29.5,27.7,29.00,South,180,0.0,0.0,93,0.00,,CLR,0.37,VWS V14.01,2013-03-19 04:15:00,
2013-03-18 21:20:00,29.3,27.3,29.00,ENE,68,0.0,0.0,92,0.00,,CLR,0.37,VWS V14.01,2013-03-19 04:20:00,
2013-03-18 21:25:00,29.1,27.4,29.00,SSE,158,0.0,0.0,93,0.00,,CLR,0.37,VWS V14.01,2013-03-19 04:25:00,
2013-03-18 21:30:00,29.1,27.4,29.00,South,180,0.0,0.0,93,0.00,,CLR,0.37,VWS V14.01,2013-03-19 04:30:00,
2013-03-18 21:35:00,28.9,27.2,29.00,South,180,0.0,0.0,93,0.00,,CLR,0.37,VWS V14.01,2013-03-19 04:35:00,
2013-03-18 21:40:00,28.9,27.2,29.00,South,180,0.0,0.0,93,0.00,,CLR,0.37,VWS V14.01,2013-03-19 04:40:00,
2013-03-18 21:45:00,28.8,27.0,29.00,NE,45,0.0,0.0,93,0.00,,CLR,0.37,VWS V14.01,2013-03-19 04:45:00,
2013-03-18 21:50:00,28.8,27.0,29.00,ESE,112,0.0,0.0,93,0.00,,CLR,0.37,VWS V14.01,2013-03-19 04:50:00,
2013-03-18 21:55:00,28.6,26.8,29.00,South,180,0.0,0.0,93,0.00,,CLR,0.37,VWS V14.01,2013-03-19 04:55:00,
2013-03-18 22:00:00,28.4,26.9,29.00,SSW,202,0.0,0.0,94,0.00,,CLR,0.37,VWS V14.01,2013-03-19 05:00:00,
2013-03-18 22:05:00,28.4,26.6,29.00,SSW,202,0.0,0.0,93,0.00,,CLR,0.37,VWS V14.01,2013-03-19 05:05:00,
2013-03-18 22:10:00,28.2,26.5,29.00,SSE,158,0.0,0.0,93,0.00,,CLR,0.37,VWS V14.01,2013-03-19 05:10:00,
2013-03-18 22:15:00,27.9,26.1,29.00,East,90,0.0,0.0,93,0.00,,CLR,0.37,VWS V14.01,2013-03-19 05:15:00,
2013-03-18 22:20:00,27.9,26.1,29.00,East,90,0.0,0.0,93,0.00,,CLR,0.37,VWS V14.01,2013-03-19 05:20:00,
2013-03-18 22:25:00,27.9,26.4,29.00,East,90,0.0,0.0,94,0.00,,CLR,0.37,VWS V14.01,2013-03-19 05:25:00,
2013-03-18 22:30:00,27.9,26.4,29.00,SSE,158,0.0,0.0,94,0.00,,CLR,0.37,VWS V14.01,2013-03-19 05:30:00,
2013-03-18 22:35:00,27.7,26.2,29.00,SSE,158,0.0,0.0,94,0.00,,CLR,0.37,VWS V14.01,2013-03-19 05:35:00,
2013-03-18 22:40:00,27.7,26.2,28.97,SSE,158,0.0,0.0,94,0.00,,CLR,0.37,VWS V14.01,2013-03-19 05:40:00,
2013-03-18 22:45:00,27.5,26.0,28.97,SSE,158,0.0,0.0,94,0.00,,CLR,0.37,VWS V14.01,2013-03-19 05:45:00,
2013-03-18 22:50:00,27.3,26.1,28.97,SSE,158,0.0,0.0,95,0.00,,CLR,0.37,VWS V14.01,2013-03-19 05:50:00,
2013-03-18 22:55:00,27.5,26.0,29.00,NE,45,1.1,1.1,94,0.00,,CLR,0.37,VWS V14.01,2013-03-19 05:55:00,
2013-03-18 23:00:00,27.7,26.4,29.00,SSE,158,0.0,0.0,95,0.00,,CLR,0.37,VWS V14.01,2013-03-19 06:00:00,
2013-03-18 23:05:00,27.7,26.4,29.00,South,180,0.0,0.0,95,0.00,,CLR,0.37,VWS V14.01,2013-03-19 06:05:00,
2013-03-18 23:10:00,27.7,26.4,28.97,South,180,0.0,0.0,95,0.00,,CLR,0.37,VWS V14.01,2013-03-19 06:10:00,
2013-03-18 23:15:00,27.7,26.2,28.97,SSE,158,0.0,0.0,94,0.00,,CLR,0.37,VWS V14.01,2013-03-19 06:15:00,
2013-03-18 23:20:00,27.7,26.2,28.97,SSE,158,0.0,0.0,94,0.00,,CLR,0.37,VWS V14.01,2013-03-19 06:20:00,
2013-03-18 23:25:00,27.7,26.4,29.00,ENE,68,0.0,0.0,95,0.00,,CLR,0.37,VWS V14.01,2013-03-19 06:25:00,
2013-03-18 23:30:00,27.3,25.8,29.00,ENE,68,0.0,0.0,94,0.00,,CLR,0.37,VWS V14.01,2013-03-19 06:30:00,
2013-03-18 23:35:00,27.3,26.1,29.00,ENE,68,0.0,0.0,95,0.00,,CLR,0.37,VWS V14.01,2013-03-19 06:35:00,
2013-03-18 23:40:00,27.3,26.1,28.97,SSW,202,0.0,0.0,95,0.00,,CLR,0.37,VWS V14.01,2013-03-19 06:40:00,
2013-03-18 23:45:00,27.3,26.1,28.97,SSW,202,0.0,0.0,95,0.00,,CLR,0.37,VWS V14.01,2013-03-19 06:45:00,
2013-03-18 23:50:00,27.1,25.9,28.97,ENE,68,0.0,0.0,95,0.00,,CLR,0.37,VWS V14.01,2013-03-19 06:50:00,
2013-03-18 23:55:00,27.0,25.7,28.97,ENE,68,0.0,0.0,95,0.00,,CLR,0.37,VWS V14.01,2013-03-19 06:55:00,